Terminal Aerodrome Forecast
Issued by NWS

Home | Current Version | Previous Version | Text Only | Print | Product List | Glossary On
Versions: 1 2 3 4 5 6 7 8 9 10 11 12 13 14 15 16
000
FTUS46 KEKA 231700 RRA
TAFUKI
TAF
KUKI 231745Z 2318/2418 33005KT P6SM FEW035 FEW200
     FM232100 30010KT P6SM FEW200
     FM240600 00000KT P6SM SKC=

USA.gov is the U.S. government's official web portal to all federal, state and local government web resources and services.